sensor_id;sensor_type;location;lat;lon;timestamp;P1;durP1;ratioP1;P2;durP2;ratioP2
24663;SDS011;12791;50.992;13.788;2022-07-06T00:00:44;4.75;;;1.08;;
24663;SDS011;12791;50.992;13.788;2022-07-06T00:03:11;1.20;;;1.10;;
24663;SDS011;12791;50.992;13.788;2022-07-06T00:05:38;1.25;;;1.08;;
24663;SDS011;12791;50.992;13.788;2022-07-06T00:08:04;3.05;;;1.00;;
24663;SDS011;12791;50.992;13.788;2022-07-06T00:10:32;1.58;;;0.90;;
24663;SDS011;12791;50.992;13.788;2022-07-06T00:12:59;0.93;;;0.93;;
24663;SDS011;12791;50.992;13.788;2022-07-06T00:15:26;1.10;;;0.80;;
24663;SDS011;12791;50.992;13.788;2022-07-06T00:17:52;1.42;;;1.10;;
24663;SDS011;12791;50.992;13.788;2022-07-06T00:20:19;1.52;;;1.00;;
24663;SDS011;12791;50.992;13.788;2022-07-06T00:22:45;1.65;;;1.25;;
24663;SDS011;12791;50.992;13.788;2022-07-06T00:25:12;2.63;;;0.90;;
24663;SDS011;12791;50.992;13.788;2022-07-06T00:27:40;0.70;;;0.70;;
24663;SDS011;12791;50.992;13.788;2022-07-06T00:30:07;1.50;;;1.10;;
24663;SDS011;12791;50.992;13.788;2022-07-06T00:32:34;1.42;;;0.90;;
24663;SDS011;12791;50.992;13.788;2022-07-06T00:35:01;1.63;;;1.25;;
24663;SDS011;12791;50.992;13.788;2022-07-06T00:37:27;0.80;;;0.80;;
24663;SDS011;12791;50.992;13.788;2022-07-06T00:39:54;1.52;;;0.93;;
24663;SDS011;12791;50.992;13.788;2022-07-06T00:42:21;0.90;;;0.90;;
24663;SDS011;12791;50.992;13.788;2022-07-06T00:44:49;1.10;;;0.90;;
24663;SDS011;12791;50.992;13.788;2022-07-06T00:47:15;1.95;;;0.90;;
24663;SDS011;12791;50.992;13.788;2022-07-06T00:49:42;1.20;;;1.00;;
24663;SDS011;12791;50.992;13.788;2022-07-06T00:52:26;1.48;;;0.70;;
24663;SDS011;12791;50.992;13.788;2022-07-06T00:54:53;1.38;;;1.27;;
24663;SDS011;12791;50.992;13.788;2022-07-06T00:57:20;1.52;;;1.00;;
24663;SDS011;12791;50.992;13.788;2022-07-06T00:59:49;1.08;;;1.00;;
24663;SDS011;12791;50.992;13.788;2022-07-06T01:02:15;0.75;;;0.70;;
24663;SDS011;12791;50.992;13.788;2022-07-06T01:04:43;1.83;;;1.00;;
24663;SDS011;12791;50.992;13.788;2022-07-06T01:07:09;4.90;;;1.10;;
24663;SDS011;12791;50.992;13.788;2022-07-06T01:09:36;1.02;;;1.00;;
24663;SDS011;12791;50.992;13.788;2022-07-06T01:12:03;1.30;;;0.82;;
24663;SDS011;12791;50.992;13.788;2022-07-06T01:14:30;1.30;;;0.90;;
24663;SDS011;12791;50.992;13.788;2022-07-06T01:17:00;2.65;;;1.17;;
24663;SDS011;12791;50.992;13.788;2022-07-06T01:19:27;1.52;;;1.08;;
24663;SDS011;12791;50.992;13.788;2022-07-06T01:21:55;1.10;;;1.08;;
24663;SDS011;12791;50.992;13.788;2022-07-06T01:24:22;4.72;;;1.00;;
24663;SDS011;12791;50.992;13.788;2022-07-06T01:26:48;1.17;;;1.00;;
24663;SDS011;12791;50.992;13.788;2022-07-06T01:29:15;2.10;;;1.05;;
24663;SDS011;12791;50.992;13.788;2022-07-06T01:31:45;2.35;;;0.90;;
24663;SDS011;12791;50.992;13.788;2022-07-06T01:34:13;2.15;;;1.02;;
24663;SDS011;12791;50.992;13.788;2022-07-06T01:36:40;1.27;;;0.80;;
24663;SDS011;12791;50.992;13.788;2022-07-06T01:39:08;1.40;;;1.10;;
24663;SDS011;12791;50.992;13.788;2022-07-06T01:41:35;1.00;;;1.00;;
24663;SDS011;12791;50.992;13.788;2022-07-06T01:44:03;2.80;;;1.13;;
24663;SDS011;12791;50.992;13.788;2022-07-06T01:46:30;1.23;;;1.13;;
24663;SDS011;12791;50.992;13.788;2022-07-06T01:48:57;1.67;;;1.25;;
24663;SDS011;12791;50.992;13.788;2022-07-06T01:51:24;1.05;;;1.05;;
24663;SDS011;12791;50.992;13.788;2022-07-06T01:53:51;0.90;;;0.90;;
24663;SDS011;12791;50.992;13.788;2022-07-06T01:56:19;1.23;;;1.13;;
24663;SDS011;12791;50.992;13.788;2022-07-06T01:58:46;1.10;;;1.10;;
24663;SDS011;12791;50.992;13.788;2022-07-06T02:01:14;1.15;;;1.05;;
24663;SDS011;12791;50.992;13.788;2022-07-06T02:03:42;1.33;;;1.00;;
24663;SDS011;12791;50.992;13.788;2022-07-06T02:06:09;1.25;;;1.10;;
24663;SDS011;12791;50.992;13.788;2022-07-06T02:08:37;1.05;;;0.80;;
24663;SDS011;12791;50.992;13.788;2022-07-06T02:11:05;2.35;;;1.20;;
24663;SDS011;12791;50.992;13.788;2022-07-06T02:13:34;1.70;;;0.95;;
24663;SDS011;12791;50.992;13.788;2022-07-06T02:16:01;1.15;;;0.90;;
24663;SDS011;12791;50.992;13.788;2022-07-06T02:18:28;1.33;;;1.23;;
24663;SDS011;12791;50.992;13.788;2022-07-06T02:20:55;1.17;;;1.08;;
24663;SDS011;12791;50.992;13.788;2022-07-06T02:23:22;1.25;;;1.02;;
24663;SDS011;12791;50.992;13.788;2022-07-06T02:25:48;1.88;;;1.02;;
24663;SDS011;12791;50.992;13.788;2022-07-06T02:28:15;1.10;;;1.10;;
24663;SDS011;12791;50.992;13.788;2022-07-06T02:30:43;1.10;;;1.00;;
24663;SDS011;12791;50.992;13.788;2022-07-06T02:33:10;1.15;;;1.05;;
24663;SDS011;12791;50.992;13.788;2022-07-06T02:35:36;1.33;;;1.20;;
24663;SDS011;12791;50.992;13.788;2022-07-06T02:38:07;1.20;;;1.10;;
24663;SDS011;12791;50.992;13.788;2022-07-06T02:40:33;1.17;;;1.05;;
24663;SDS011;12791;50.992;13.788;2022-07-06T02:43:00;1.40;;;1.30;;
24663;SDS011;12791;50.992;13.788;2022-07-06T02:45:27;2.15;;;1.20;;
24663;SDS011;12791;50.992;13.788;2022-07-06T02:47:55;1.42;;;1.10;;
24663;SDS011;12791;50.992;13.788;2022-07-06T02:50:22;1.17;;;1.02;;
24663;SDS011;12791;50.992;13.788;2022-07-06T02:52:49;0.82;;;0.80;;
24663;SDS011;12791;50.992;13.788;2022-07-06T02:55:16;1.85;;;1.05;;
24663;SDS011;12791;50.992;13.788;2022-07-06T02:57:43;1.00;;;1.00;;
24663;SDS011;12791;50.992;13.788;2022-07-06T03:00:09;1.02;;;1.02;;
24663;SDS011;12791;50.992;13.788;2022-07-06T03:02:36;1.70;;;0.80;;
24663;SDS011;12791;50.992;13.788;2022-07-06T03:05:05;1.20;;;1.10;;
24663;SDS011;12791;50.992;13.788;2022-07-06T03:07:32;4.78;;;1.30;;
24663;SDS011;12791;50.992;13.788;2022-07-06T03:09:59;2.05;;;0.90;;
24663;SDS011;12791;50.992;13.788;2022-07-06T03:12:26;1.25;;;1.15;;
24663;SDS011;12791;50.992;13.788;2022-07-06T03:14:52;1.70;;;1.02;;
24663;SDS011;12791;50.992;13.788;2022-07-06T03:17:19;2.38;;;1.20;;
24663;SDS011;12791;50.992;13.788;2022-07-06T03:19:46;2.45;;;0.80;;
24663;SDS011;12791;50.992;13.788;2022-07-06T03:22:14;1.60;;;1.50;;
24663;SDS011;12791;50.992;13.788;2022-07-06T03:24:41;1.55;;;1.20;;
24663;SDS011;12791;50.992;13.788;2022-07-06T03:27:08;1.00;;;1.00;;
24663;SDS011;12791;50.992;13.788;2022-07-06T03:29:35;1.38;;;1.27;;
24663;SDS011;12791;50.992;13.788;2022-07-06T03:32:01;1.48;;;1.27;;
24663;SDS011;12791;50.992;13.788;2022-07-06T03:34:28;1.40;;;1.30;;
24663;SDS011;12791;50.992;13.788;2022-07-06T03:36:55;1.55;;;1.10;;
24663;SDS011;12791;50.992;13.788;2022-07-06T03:39:23;1.48;;;1.15;;
24663;SDS011;12791;50.992;13.788;2022-07-06T03:41:49;1.27;;;1.17;;
24663;SDS011;12791;50.992;13.788;2022-07-06T03:44:16;1.58;;;1.10;;
24663;SDS011;12791;50.992;13.788;2022-07-06T03:46:43;1.42;;;1.33;;
24663;SDS011;12791;50.992;13.788;2022-07-06T03:49:09;1.92;;;1.45;;
24663;SDS011;12791;50.992;13.788;2022-07-06T03:51:36;2.45;;;1.10;;
24663;SDS011;12791;50.992;13.788;2022-07-06T03:54:02;2.33;;;1.20;;
24663;SDS011;12791;50.992;13.788;2022-07-06T03:56:30;1.83;;;1.25;;
24663;SDS011;12791;50.992;13.788;2022-07-06T03:58:58;1.50;;;1.40;;
24663;SDS011;12791;50.992;13.788;2022-07-06T04:01:26;3.05;;;1.30;;
24663;SDS011;12791;50.992;13.788;2022-07-06T04:03:54;2.90;;;1.25;;
24663;SDS011;12791;50.992;13.788;2022-07-06T04:06:21;1.10;;;1.10;;
24663;SDS011;12791;50.992;13.788;2022-07-06T04:08:48;2.67;;;1.50;;
24663;SDS011;12791;50.992;13.788;2022-07-06T04:11:15;1.60;;;1.50;;
24663;SDS011;12791;50.992;13.788;2022-07-06T04:13:43;2.38;;;1.35;;
24663;SDS011;12791;50.992;13.788;2022-07-06T04:16:09;1.40;;;1.30;;
24663;SDS011;12791;50.992;13.788;2022-07-06T04:18:36;1.30;;;1.20;;
24663;SDS011;12791;50.992;13.788;2022-07-06T04:21:03;1.95;;;1.75;;
24663;SDS011;12791;50.992;13.788;2022-07-06T04:23:29;2.78;;;1.60;;
24663;SDS011;12791;50.992;13.788;2022-07-06T04:25:56;2.53;;;1.95;;
24663;SDS011;12791;50.992;13.788;2022-07-06T04:28:23;3.08;;;2.10;;
24663;SDS011;12791;50.992;13.788;2022-07-06T04:30:51;2.17;;;1.50;;
24663;SDS011;12791;50.992;13.788;2022-07-06T04:33:17;2.00;;;1.90;;
24663;SDS011;12791;50.992;13.788;2022-07-06T04:35:44;2.72;;;2.30;;
24663;SDS011;12791;50.992;13.788;2022-07-06T04:38:11;1.55;;;1.40;;
24663;SDS011;12791;50.992;13.788;2022-07-06T04:40:37;1.92;;;1.67;;
24663;SDS011;12791;50.992;13.788;2022-07-06T04:43:04;2.78;;;1.58;;
24663;SDS011;12791;50.992;13.788;2022-07-06T04:45:31;2.15;;;1.80;;
24663;SDS011;12791;50.992;13.788;2022-07-06T04:47:59;1.92;;;1.52;;
24663;SDS011;12791;50.992;13.788;2022-07-06T04:50:25;2.65;;;1.70;;
24663;SDS011;12791;50.992;13.788;2022-07-06T04:52:52;1.75;;;1.27;;
24663;SDS011;12791;50.992;13.788;2022-07-06T04:55:19;2.25;;;1.50;;
24663;SDS011;12791;50.992;13.788;2022-07-06T04:57:45;1.98;;;1.60;;
24663;SDS011;12791;50.992;13.788;2022-07-06T05:00:13;3.25;;;1.75;;
24663;SDS011;12791;50.992;13.788;2022-07-06T05:02:40;1.80;;;1.70;;
24663;SDS011;12791;50.992;13.788;2022-07-06T05:05:08;2.25;;;1.38;;
24663;SDS011;12791;50.992;13.788;2022-07-06T05:07:35;1.70;;;1.60;;
24663;SDS011;12791;50.992;13.788;2022-07-06T05:10:04;1.10;;;1.00;;
24663;SDS011;12791;50.992;13.788;2022-07-06T05:12:32;1.90;;;1.80;;
24663;SDS011;12791;50.992;13.788;2022-07-06T05:14:59;1.45;;;1.40;;
24663;SDS011;12791;50.992;13.788;2022-07-06T05:17:25;1.90;;;1.80;;
24663;SDS011;12791;50.992;13.788;2022-07-06T05:19:52;1.85;;;1.42;;
24663;SDS011;12791;50.992;13.788;2022-07-06T05:22:20;1.60;;;1.50;;
24663;SDS011;12791;50.992;13.788;2022-07-06T05:24:47;3.95;;;1.88;;
24663;SDS011;12791;50.992;13.788;2022-07-06T05:27:13;1.73;;;1.63;;
24663;SDS011;12791;50.992;13.788;2022-07-06T05:29:40;2.38;;;1.40;;
24663;SDS011;12791;50.992;13.788;2022-07-06T05:32:07;2.13;;;1.45;;
24663;SDS011;12791;50.992;13.788;2022-07-06T05:34:34;1.50;;;1.40;;
24663;SDS011;12791;50.992;13.788;2022-07-06T05:37:01;4.35;;;2.00;;
24663;SDS011;12791;50.992;13.788;2022-07-06T05:39:29;3.45;;;1.60;;
24663;SDS011;12791;50.992;13.788;2022-07-06T05:41:56;1.95;;;1.85;;
24663;SDS011;12791;50.992;13.788;2022-07-06T05:44:23;1.73;;;1.63;;
24663;SDS011;12791;50.992;13.788;2022-07-06T05:46:49;3.22;;;1.80;;
24663;SDS011;12791;50.992;13.788;2022-07-06T05:49:16;4.28;;;2.15;;
24663;SDS011;12791;50.992;13.788;2022-07-06T05:52:00;1.80;;;1.45;;
24663;SDS011;12791;50.992;13.788;2022-07-06T05:54:27;3.40;;;1.95;;
24663;SDS011;12791;50.992;13.788;2022-07-06T05:56:55;2.45;;;1.77;;
24663;SDS011;12791;50.992;13.788;2022-07-06T05:59:21;2.35;;;2.05;;
24663;SDS011;12791;50.992;13.788;2022-07-06T06:01:48;1.90;;;1.35;;
24663;SDS011;12791;50.992;13.788;2022-07-06T06:04:15;3.80;;;1.25;;
24663;SDS011;12791;50.992;13.788;2022-07-06T06:06:41;4.15;;;1.55;;
24663;SDS011;12791;50.992;13.788;2022-07-06T06:09:08;2.83;;;1.40;;
24663;SDS011;12791;50.992;13.788;2022-07-06T06:11:35;1.55;;;1.23;;
24663;SDS011;12791;50.992;13.788;2022-07-06T06:14:02;3.80;;;1.60;;
24663;SDS011;12791;50.992;13.788;2022-07-06T06:16:30;3.58;;;1.70;;
24663;SDS011;12791;50.992;13.788;2022-07-06T06:18:56;3.95;;;1.70;;
24663;SDS011;12791;50.992;13.788;2022-07-06T06:21:23;1.40;;;1.30;;
24663;SDS011;12791;50.992;13.788;2022-07-06T06:23:50;1.45;;;1.30;;
24663;SDS011;12791;50.992;13.788;2022-07-06T06:26:17;4.38;;;1.45;;
24663;SDS011;12791;50.992;13.788;2022-07-06T06:28:43;3.03;;;1.33;;
24663;SDS011;12791;50.992;13.788;2022-07-06T06:31:11;1.90;;;1.08;;
24663;SDS011;12791;50.992;13.788;2022-07-06T06:33:38;2.58;;;1.40;;
24663;SDS011;12791;50.992;13.788;2022-07-06T06:36:04;1.75;;;1.20;;
24663;SDS011;12791;50.992;13.788;2022-07-06T06:38:31;2.50;;;1.30;;
24663;SDS011;12791;50.992;13.788;2022-07-06T06:40:58;4.93;;;1.30;;
24663;SDS011;12791;50.992;13.788;2022-07-06T06:43:26;3.47;;;1.20;;
24663;SDS011;12791;50.992;13.788;2022-07-06T06:45:53;3.00;;;1.10;;
24663;SDS011;12791;50.992;13.788;2022-07-06T06:48:21;3.95;;;1.80;;
24663;SDS011;12791;50.992;13.788;2022-07-06T06:50:47;2.88;;;1.38;;
24663;SDS011;12791;50.992;13.788;2022-07-06T06:53:14;1.30;;;1.10;;
24663;SDS011;12791;50.992;13.788;2022-07-06T06:55:41;1.98;;;1.13;;
24663;SDS011;12791;50.992;13.788;2022-07-06T06:58:07;3.40;;;1.20;;
24663;SDS011;12791;50.992;13.788;2022-07-06T07:00:34;4.78;;;1.55;;
24663;SDS011;12791;50.992;13.788;2022-07-06T07:03:01;2.03;;;0.85;;
24663;SDS011;12791;50.992;13.788;2022-07-06T07:05:29;2.22;;;0.70;;
24663;SDS011;12791;50.992;13.788;2022-07-06T07:07:55;2.85;;;1.13;;
24663;SDS011;12791;50.992;13.788;2022-07-06T07:10:24;2.63;;;0.70;;
24663;SDS011;12791;50.992;13.788;2022-07-06T07:12:50;3.78;;;1.20;;
24663;SDS011;12791;50.992;13.788;2022-07-06T07:15:18;1.52;;;1.00;;
24663;SDS011;12791;50.992;13.788;2022-07-06T07:17:44;5.97;;;1.58;;
24663;SDS011;12791;50.992;13.788;2022-07-06T07:20:11;6.57;;;1.35;;
24663;SDS011;12791;50.992;13.788;2022-07-06T07:22:39;2.03;;;1.38;;
24663;SDS011;12791;50.992;13.788;2022-07-06T07:25:06;5.93;;;0.90;;
24663;SDS011;12791;50.992;13.788;2022-07-06T07:27:33;2.25;;;0.90;;
24663;SDS011;12791;50.992;13.788;2022-07-06T07:30:00;14.25;;;2.60;;
24663;SDS011;12791;50.992;13.788;2022-07-06T07:32:27;3.13;;;0.95;;
24663;SDS011;12791;50.992;13.788;2022-07-06T07:34:53;2.05;;;0.90;;
24663;SDS011;12791;50.992;13.788;2022-07-06T07:37:20;2.35;;;1.00;;
24663;SDS011;12791;50.992;13.788;2022-07-06T07:39:48;1.45;;;0.88;;
24663;SDS011;12791;50.992;13.788;2022-07-06T07:42:15;4.10;;;1.00;;
24663;SDS011;12791;50.992;13.788;2022-07-06T07:44:41;0.70;;;0.70;;
24663;SDS011;12791;50.992;13.788;2022-07-06T07:47:08;1.17;;;0.68;;
24663;SDS011;12791;50.992;13.788;2022-07-06T07:49:35;2.97;;;0.80;;
24663;SDS011;12791;50.992;13.788;2022-07-06T07:52:01;5.03;;;0.90;;
24663;SDS011;12791;50.992;13.788;2022-07-06T07:54:28;1.05;;;0.70;;
24663;SDS011;12791;50.992;13.788;2022-07-06T07:56:56;2.65;;;0.80;;
24663;SDS011;12791;50.992;13.788;2022-07-06T07:59:23;2.78;;;0.80;;
24663;SDS011;12791;50.992;13.788;2022-07-06T08:01:50;2.38;;;0.70;;
24663;SDS011;12791;50.992;13.788;2022-07-06T08:04:17;2.97;;;0.80;;
24663;SDS011;12791;50.992;13.788;2022-07-06T08:06:44;1.48;;;0.77;;
24663;SDS011;12791;50.992;13.788;2022-07-06T08:09:11;3.58;;;1.10;;
24663;SDS011;12791;50.992;13.788;2022-07-06T08:11:37;3.58;;;0.75;;
24663;SDS011;12791;50.992;13.788;2022-07-06T08:14:05;3.40;;;0.75;;
24663;SDS011;12791;50.992;13.788;2022-07-06T08:16:32;2.67;;;0.80;;
24663;SDS011;12791;50.992;13.788;2022-07-06T08:18:59;1.73;;;0.70;;
24663;SDS011;12791;50.992;13.788;2022-07-06T08:21:25;4.70;;;1.05;;
24663;SDS011;12791;50.992;13.788;2022-07-06T08:23:53;6.47;;;0.77;;
24663;SDS011;12791;50.992;13.788;2022-07-06T08:26:20;2.78;;;0.60;;
24663;SDS011;12791;50.992;13.788;2022-07-06T08:28:48;3.15;;;0.70;;
24663;SDS011;12791;50.992;13.788;2022-07-06T08:31:16;3.13;;;0.75;;
24663;SDS011;12791;50.992;13.788;2022-07-06T08:33:43;1.15;;;0.50;;
24663;SDS011;12791;50.992;13.788;2022-07-06T08:36:10;4.47;;;0.80;;
24663;SDS011;12791;50.992;13.788;2022-07-06T08:38:36;2.72;;;0.60;;
24663;SDS011;12791;50.992;13.788;2022-07-06T08:41:03;1.08;;;0.60;;
24663;SDS011;12791;50.992;13.788;2022-07-06T08:43:32;1.67;;;0.65;;
24663;SDS011;12791;50.992;13.788;2022-07-06T08:46:00;2.08;;;0.40;;
24663;SDS011;12791;50.992;13.788;2022-07-06T08:48:30;1.05;;;0.60;;
24663;SDS011;12791;50.992;13.788;2022-07-06T08:51:02;1.30;;;0.60;;
24663;SDS011;12791;50.992;13.788;2022-07-06T08:53:30;3.10;;;0.50;;
24663;SDS011;12791;50.992;13.788;2022-07-06T08:55:56;0.50;;;0.50;;
24663;SDS011;12791;50.992;13.788;2022-07-06T08:58:23;0.95;;;0.50;;
24663;SDS011;12791;50.992;13.788;2022-07-06T09:00:51;0.82;;;0.40;;
24663;SDS011;12791;50.992;13.788;2022-07-06T09:03:18;1.20;;;0.60;;
24663;SDS011;12791;50.992;13.788;2022-07-06T09:05:46;4.30;;;0.82;;
24663;SDS011;12791;50.992;13.788;2022-07-06T09:08:13;1.77;;;0.40;;
24663;SDS011;12791;50.992;13.788;2022-07-06T09:10:40;1.73;;;0.40;;
24663;SDS011;12791;50.992;13.788;2022-07-06T09:13:08;2.28;;;0.63;;
24663;SDS011;12791;50.992;13.788;2022-07-06T09:15:35;2.95;;;0.47;;
24663;SDS011;12791;50.992;13.788;2022-07-06T09:18:03;1.25;;;0.60;;
24663;SDS011;12791;50.992;13.788;2022-07-06T09:20:30;0.70;;;0.45;;
24663;SDS011;12791;50.992;13.788;2022-07-06T09:22:59;1.20;;;0.50;;
24663;SDS011;12791;50.992;13.788;2022-07-06T09:25:28;2.65;;;0.68;;
24663;SDS011;12791;50.992;13.788;2022-07-06T09:27:56;1.85;;;0.70;;
24663;SDS011;12791;50.992;13.788;2022-07-06T09:30:24;1.95;;;0.60;;
24663;SDS011;12791;50.992;13.788;2022-07-06T09:32:52;0.98;;;0.50;;
24663;SDS011;12791;50.992;13.788;2022-07-06T09:35:21;1.60;;;0.60;;
24663;SDS011;12791;50.992;13.788;2022-07-06T09:38:00;2.70;;;0.50;;
24663;SDS011;12791;50.992;13.788;2022-07-06T09:40:29;2.90;;;0.80;;
24663;SDS011;12791;50.992;13.788;2022-07-06T09:43:10;0.40;;;0.40;;
24663;SDS011;12791;50.992;13.788;2022-07-06T09:45:38;0.95;;;0.52;;
24663;SDS011;12791;50.992;13.788;2022-07-06T09:48:06;2.65;;;0.50;;
24663;SDS011;12791;50.992;13.788;2022-07-06T09:50:38;2.13;;;0.45;;
24663;SDS011;12791;50.992;13.788;2022-07-06T09:53:07;3.40;;;0.50;;
24663;SDS011;12791;50.992;13.788;2022-07-06T09:55:34;1.20;;;0.70;;
24663;SDS011;12791;50.992;13.788;2022-07-06T09:58:00;2.60;;;0.60;;
24663;SDS011;12791;50.992;13.788;2022-07-06T10:00:27;1.17;;;0.40;;
24663;SDS011;12791;50.992;13.788;2022-07-06T10:02:54;1.98;;;0.60;;
24663;SDS011;12791;50.992;13.788;2022-07-06T10:05:21;1.23;;;0.40;;
24663;SDS011;12791;50.992;13.788;2022-07-06T10:10:23;1.15;;;0.50;;
24663;SDS011;12791;50.992;13.788;2022-07-06T10:12:51;3.13;;;0.70;;
24663;SDS011;12791;50.992;13.788;2022-07-06T10:15:20;1.27;;;0.60;;
24663;SDS011;12791;50.992;13.788;2022-07-06T10:17:48;1.65;;;0.60;;
24663;SDS011;12791;50.992;13.788;2022-07-06T10:20:16;1.13;;;0.60;;
24663;SDS011;12791;50.992;13.788;2022-07-06T10:22:43;1.63;;;0.50;;
24663;SDS011;12791;50.992;13.788;2022-07-06T10:25:11;5.30;;;0.95;;
24663;SDS011;12791;50.992;13.788;2022-07-06T10:27:39;1.17;;;0.75;;
24663;SDS011;12791;50.992;13.788;2022-07-06T10:30:08;2.50;;;0.60;;
24663;SDS011;12791;50.992;13.788;2022-07-06T10:32:36;1.35;;;0.50;;
24663;SDS011;12791;50.992;13.788;2022-07-06T10:35:06;0.95;;;0.50;;
24663;SDS011;12791;50.992;13.788;2022-07-06T10:37:33;0.88;;;0.57;;
24663;SDS011;12791;50.992;13.788;2022-07-06T10:40:00;1.88;;;0.50;;
24663;SDS011;12791;50.992;13.788;2022-07-06T10:42:58;1.13;;;0.50;;
24663;SDS011;12791;50.992;13.788;2022-07-06T10:48:16;1.75;;;0.50;;
24663;SDS011;12791;50.992;13.788;2022-07-06T10:50:46;1.67;;;0.60;;
24663;SDS011;12791;50.992;13.788;2022-07-06T10:53:14;1.92;;;0.65;;
24663;SDS011;12791;50.992;13.788;2022-07-06T10:55:42;0.90;;;0.50;;
24663;SDS011;12791;50.992;13.788;2022-07-06T10:58:12;4.47;;;0.93;;
24663;SDS011;12791;50.992;13.788;2022-07-06T11:00:47;1.75;;;0.47;;
24663;SDS011;12791;50.992;13.788;2022-07-06T11:06:05;1.10;;;0.50;;
24663;SDS011;12791;50.992;13.788;2022-07-06T11:08:40;1.08;;;0.50;;
24663;SDS011;12791;50.992;13.788;2022-07-06T11:11:12;2.22;;;0.60;;
24663;SDS011;12791;50.992;13.788;2022-07-06T11:13:43;1.55;;;0.70;;
24663;SDS011;12791;50.992;13.788;2022-07-06T11:16:14;6.15;;;4.60;;
24663;SDS011;12791;50.992;13.788;2022-07-06T11:18:41;4.13;;;1.15;;
24663;SDS011;12791;50.992;13.788;2022-07-06T11:21:19;0.75;;;0.50;;
24663;SDS011;12791;50.992;13.788;2022-07-06T11:23:48;1.20;;;0.70;;
24663;SDS011;12791;50.992;13.788;2022-07-06T11:26:16;2.15;;;0.60;;
24663;SDS011;12791;50.992;13.788;2022-07-06T11:28:46;2.28;;;0.70;;
24663;SDS011;12791;50.992;13.788;2022-07-06T11:31:14;1.48;;;0.60;;
24663;SDS011;12791;50.992;13.788;2022-07-06T11:33:44;1.50;;;0.80;;
24663;SDS011;12791;50.992;13.788;2022-07-06T11:36:11;3.47;;;1.15;;
24663;SDS011;12791;50.992;13.788;2022-07-06T11:38:42;1.15;;;0.50;;
24663;SDS011;12791;50.992;13.788;2022-07-06T11:41:09;1.42;;;0.50;;
24663;SDS011;12791;50.992;13.788;2022-07-06T11:43:38;1.90;;;0.70;;
24663;SDS011;12791;50.992;13.788;2022-07-06T11:46:18;0.60;;;0.60;;
24663;SDS011;12791;50.992;13.788;2022-07-06T11:48:46;1.90;;;0.70;;
24663;SDS011;12791;50.992;13.788;2022-07-06T11:51:13;1.38;;;0.50;;
24663;SDS011;12791;50.992;13.788;2022-07-06T11:53:42;0.77;;;0.70;;
24663;SDS011;12791;50.992;13.788;2022-07-06T11:56:10;2.38;;;0.85;;
24663;SDS011;12791;50.992;13.788;2022-07-06T11:58:37;1.83;;;0.60;;
24663;SDS011;12791;50.992;13.788;2022-07-06T12:01:05;2.03;;;0.70;;
24663;SDS011;12791;50.992;13.788;2022-07-06T12:03:34;2.05;;;0.68;;
24663;SDS011;12791;50.992;13.788;2022-07-06T12:06:01;2.08;;;0.55;;
24663;SDS011;12791;50.992;13.788;2022-07-06T12:08:28;0.95;;;0.60;;
24663;SDS011;12791;50.992;13.788;2022-07-06T12:10:55;2.53;;;0.90;;
24663;SDS011;12791;50.992;13.788;2022-07-06T12:13:22;5.40;;;2.00;;
24663;SDS011;12791;50.992;13.788;2022-07-06T12:15:49;1.00;;;0.70;;
24663;SDS011;12791;50.992;13.788;2022-07-06T12:18:16;2.38;;;1.08;;
24663;SDS011;12791;50.992;13.788;2022-07-06T12:20:44;3.20;;;0.80;;
24663;SDS011;12791;50.992;13.788;2022-07-06T12:23:11;1.35;;;0.52;;
24663;SDS011;12791;50.992;13.788;2022-07-06T12:25:37;3.47;;;0.60;;
24663;SDS011;12791;50.992;13.788;2022-07-06T12:28:04;1.08;;;0.70;;
24663;SDS011;12791;50.992;13.788;2022-07-06T12:30:31;3.10;;;0.60;;
24663;SDS011;12791;50.992;13.788;2022-07-06T12:33:11;1.77;;;0.57;;
24663;SDS011;12791;50.992;13.788;2022-07-06T12:35:40;3.92;;;0.80;;
24663;SDS011;12791;50.992;13.788;2022-07-06T12:38:08;0.70;;;0.50;;
24663;SDS011;12791;50.992;13.788;2022-07-06T12:40:35;1.58;;;0.57;;
24663;SDS011;12791;50.992;13.788;2022-07-06T12:43:02;3.90;;;0.80;;
24663;SDS011;12791;50.992;13.788;2022-07-06T12:45:30;0.93;;;0.60;;
24663;SDS011;12791;50.992;13.788;2022-07-06T12:47:57;1.92;;;0.77;;
24663;SDS011;12791;50.992;13.788;2022-07-06T12:50:30;1.00;;;0.68;;
24663;SDS011;12791;50.992;13.788;2022-07-06T12:55:26;1.73;;;0.60;;
24663;SDS011;12791;50.992;13.788;2022-07-06T12:57:54;3.80;;;0.77;;
24663;SDS011;12791;50.992;13.788;2022-07-06T13:00:22;1.30;;;0.40;;
24663;SDS011;12791;50.992;13.788;2022-07-06T13:02:49;5.03;;;0.60;;
24663;SDS011;12791;50.992;13.788;2022-07-06T13:05:22;2.92;;;0.60;;
24663;SDS011;12791;50.992;13.788;2022-07-06T13:07:52;2.05;;;0.47;;
24663;SDS011;12791;50.992;13.788;2022-07-06T13:10:20;1.05;;;0.60;;
24663;SDS011;12791;50.992;13.788;2022-07-06T13:12:48;2.08;;;0.68;;
24663;SDS011;12791;50.992;13.788;2022-07-06T13:15:15;1.48;;;0.73;;
24663;SDS011;12791;50.992;13.788;2022-07-06T13:17:42;1.23;;;0.55;;
24663;SDS011;12791;50.992;13.788;2022-07-06T13:20:12;0.95;;;0.40;;
24663;SDS011;12791;50.992;13.788;2022-07-06T13:22:39;0.68;;;0.50;;
24663;SDS011;12791;50.992;13.788;2022-07-06T13:25:06;1.33;;;0.57;;
24663;SDS011;12791;50.992;13.788;2022-07-06T13:27:34;1.42;;;0.55;;
24663;SDS011;12791;50.992;13.788;2022-07-06T13:30:02;2.20;;;0.60;;
24663;SDS011;12791;50.992;13.788;2022-07-06T13:32:29;0.70;;;0.50;;
24663;SDS011;12791;50.992;13.788;2022-07-06T13:34:57;2.33;;;0.57;;
24663;SDS011;12791;50.992;13.788;2022-07-06T13:37:24;3.22;;;0.50;;
24663;SDS011;12791;50.992;13.788;2022-07-06T13:39:50;2.10;;;0.43;;
24663;SDS011;12791;50.992;13.788;2022-07-06T13:42:17;2.10;;;0.50;;
24663;SDS011;12791;50.992;13.788;2022-07-06T13:44:44;1.70;;;0.60;;
24663;SDS011;12791;50.992;13.788;2022-07-06T13:47:12;2.80;;;0.43;;
24663;SDS011;12791;50.992;13.788;2022-07-06T13:49:38;2.33;;;0.70;;
24663;SDS011;12791;50.992;13.788;2022-07-06T13:52:05;2.38;;;0.55;;
24663;SDS011;12791;50.992;13.788;2022-07-06T13:54:32;4.15;;;0.88;;
24663;SDS011;12791;50.992;13.788;2022-07-06T13:57:01;1.48;;;0.52;;
24663;SDS011;12791;50.992;13.788;2022-07-06T13:59:28;0.52;;;0.50;;
24663;SDS011;12791;50.992;13.788;2022-07-06T14:01:54;2.53;;;0.57;;
24663;SDS011;12791;50.992;13.788;2022-07-06T14:04:22;1.25;;;0.50;;
24663;SDS011;12791;50.992;13.788;2022-07-06T14:06:49;1.27;;;0.40;;
24663;SDS011;12791;50.992;13.788;2022-07-06T14:09:16;0.47;;;0.40;;
24663;SDS011;12791;50.992;13.788;2022-07-06T14:11:42;1.15;;;0.45;;
24663;SDS011;12791;50.992;13.788;2022-07-06T14:14:09;2.38;;;0.50;;
24663;SDS011;12791;50.992;13.788;2022-07-06T14:16:36;1.60;;;0.60;;
24663;SDS011;12791;50.992;13.788;2022-07-06T14:19:04;1.75;;;0.40;;
24663;SDS011;12791;50.992;13.788;2022-07-06T14:21:32;1.58;;;0.65;;
24663;SDS011;12791;50.992;13.788;2022-07-06T14:23:59;4.70;;;0.40;;
24663;SDS011;12791;50.992;13.788;2022-07-06T14:26:25;0.88;;;0.50;;
24663;SDS011;12791;50.992;13.788;2022-07-06T14:28:52;1.05;;;0.50;;
24663;SDS011;12791;50.992;13.788;2022-07-06T14:31:19;0.40;;;0.40;;
24663;SDS011;12791;50.992;13.788;2022-07-06T14:33:46;1.38;;;0.40;;
24663;SDS011;12791;50.992;13.788;2022-07-06T14:36:12;0.93;;;0.45;;
24663;SDS011;12791;50.992;13.788;2022-07-06T14:38:40;2.08;;;0.40;;
24663;SDS011;12791;50.992;13.788;2022-07-06T14:41:07;2.85;;;0.50;;
24663;SDS011;12791;50.992;13.788;2022-07-06T14:43:34;1.30;;;0.50;;
24663;SDS011;12791;50.992;13.788;2022-07-06T14:46:01;3.50;;;0.40;;